Flight Track Log - Related Links

Times and Time Zones

All times are in EDT time to prevent confusion due to time zone crossing. See the GJS3631 flight status page for this flight to view local times or setup timezone preferences in your user account.

Time Position Orientation Groundspeed Altitude Reporting Facility
EDT Latitude Longitude Course Direction KTS MPH feet Rate Location/Type
Tue 12:54:14 PM 29.5464 -98.4467 90° East 146 168 1,600  Level Houston Center
Tue 12:55:03 PM 29.5731 -98.4169 44° Northeast 176 203 2,800 1,645 Climbing Houston Center
Tue 12:55:16 PM 29.5822 -98.4075 42° Northeast 171 197 3,300 2,320 Climbing Houston Center
Tue 12:56:18 PM 29.6481 -98.3853 16° North 236 272 5,700 2,688 Climbing Houston Center
Tue 12:57:00 PM 29.6500 -97.8508 90° East  Level FlightAware Approximate
Tue 12:57:21 PM 29.7092 -98.3628 18° North 245 282 8,900  Level Houston Center
Tue 12:58:00 PM 29.6501 -97.6874 90° East  Level FlightAware Approximate
Tue 12:58:23 PM 29.7231 -98.2625 81° East 307 353 10,900  Level Houston Center
Tue 12:59:00 PM 29.6501 -97.5240 90° East  Level FlightAware Approximate
Tue 12:59:25 PM 29.7047 -98.1475 100° East 365 420 12,500  Level Houston Center
Tue 01:00:27 PM 29.6836 -98.0131 100° East 397 457 14,200 1,839 Climbing Houston Center
Tue 01:01:29 PM 29.6617 -97.8831 101° East 412 474 16,300 1,839 Climbing Houston Center
Tue 01:02:31 PM 29.6544 -97.7486 94° East 412 474 18,000 1,584 Climbing Houston Center
Tue 01:03:34 PM 29.6558 -97.6183 89° East 407 468 19,600 1,536 Climbing Houston Center
Tue 01:04:36 PM 29.6575 -97.4850 89° East 416 479 21,200 1,548 Climbing Houston Center
Tue 01:05:38 PM 29.6586 -97.3492 89° East 422 486 22,800 1,452 Climbing Houston Center
Tue 01:06:40 PM 29.6603 -97.2114 89° East 425 489 24,200 1,403 Climbing Houston Center
Tue 01:07:42 PM 29.6603 -97.0703 90° East 435 501 25,700 1,403 Climbing Houston Center
Tue 01:08:44 PM 29.6467 -96.9278 96° East 442 509 27,100 1,248 Climbing Houston Center
Tue 01:09:47 PM 29.6150 -96.7519 102° East 456 525 28,300 1,056 Climbing Houston Center
Tue 01:10:49 PM 29.5950 -96.6047 99° East 460 529 29,300 968 Climbing Houston Center
Tue 01:11:51 PM 29.5797 -96.4561 97° East 464 534 30,300 1,016 Climbing Houston Center
Tue 01:12:53 PM 29.5631 -96.3072 97° East 465 535 31,400 774 Climbing Houston Center
Tue 01:13:55 PM 29.5547 -96.1558 94° East 474 545 31,900 484 Climbing Houston Center
Tue 01:14:57 PM 29.6064 -96.0214 66° East 467 537 32,400 417 Climbing Houston Center
Tue 01:17:02 PM 29.7633 -95.7336 63° Northeast 482 555 33,200 481 Climbing Houston Center
Tue 01:18:04 PM 29.8339 -95.5939 60° Northeast 497 572 33,900 581 Climbing Houston Center
Tue 01:19:06 PM 29.9044 -95.4533 60° Northeast 499 574 34,400 435 Climbing Houston Center
Tue 01:20:08 PM 29.9736 -95.3072 61° Northeast 508 585 34,800 145 Climbing Houston Center
Tue 01:23:15 PM 30.1592 -94.8311 67° East 544 626 35,000 337 Climbing Houston Center
Tue 01:24:17 PM 30.2322 -94.6442 66° East 533 613 36,200 968 Climbing Houston Center
Tue 01:25:19 PM 30.2933 -94.4864 66° East 518 596 37,000 387 Climbing Houston Center
Tue 01:26:21 PM 30.3503 -94.3364 66° East 512 589 37,000  Level Houston Center
Tue 01:27:23 PM 30.4061 -94.1881 66° East 507 583 37,000  Level Houston Center
Tue 01:28:26 PM 30.4628 -94.0411 66° East 503 579 37,000  Level Houston Center
Tue 01:29:28 PM 30.5189 -93.8933 66° East 502 578 37,000  Level Houston Center
Tue 01:30:30 PM 30.5750 -93.7447 66° East 499 574 37,000  Level Houston Center
Tue 01:31:32 PM 30.6311 -93.5942 67° East 499 574 37,000  Level Houston Center
Tue 01:32:34 PM 30.6983 -93.4117 67° East 505 581 37,000  Level Houston Center
Tue 01:33:37 PM 30.7539 -93.2606 67° East 505 581 37,000  Level Houston Center
Tue 01:34:39 PM 30.8111 -93.1078 66° East 508 585 37,000  Level Houston Center
Tue 01:35:41 PM 30.8675 -92.9583 66° East 512 589 37,000  Level Houston Center
Tue 01:36:43 PM 30.9233 -92.8058 67° East 513 590 37,000  Level Houston Center
Tue 01:37:45 PM 30.9911 -92.6200 67° East 522 601 37,000  Level Houston Center
Tue 01:39:50 PM 31.1056 -92.3008 67° East 522 601 37,000  Level Houston Center
Tue 01:40:52 PM 31.1622 -92.1444 67° East 522 601 37,000  Level Houston Center
Tue 01:41:54 PM 31.2244 -91.9706 67° East 525 604 37,000  Level Houston Center
Tue 01:42:56 PM 31.2803 -91.8119 68° East 526 605 37,000  Level Houston Center
Tue 01:43:58 PM 31.3378 -91.6533 67° East 529 609 37,000  Level Houston Center
Tue 01:45:01 PM 31.3936 -91.4936 68° East 529 609 37,000  Level Houston Center
Tue 01:46:03 PM 31.4511 -91.3333 67° East 533 613 37,000  Level Houston Center
Tue 01:47:05 PM 31.5069 -91.1744 68° East 534 615 37,000  Level Houston Center
Tue 01:48:07 PM 31.5675 -91.0022 68° East 533 613 37,000  Level Houston Center
Tue 01:49:09 PM 31.6225 -90.8425 68° East 532 612 37,000  Level Houston Center
Tue 01:50:11 PM 31.6886 -90.6503 68° East 530 610 37,000  Level Houston Center
Tue 01:50:57 PM 31.7261 -90.5375 69° East 531 611 37,000  Level Memphis Center
Tue 01:52:16 PM 31.7989 -90.3281 68° East 530 610 37,000  Level Houston Center
Tue 01:53:01 PM 31.8356 -90.2194 68° East 530 610 37,000  Level Memphis Center
Tue 01:54:03 PM 31.8994 -90.0283 68° East 530 610 37,000  Level Memphis Center
Tue 01:55:05 PM 31.9544 -89.8675 68° East 531 611 37,000  Level Memphis Center
Tue 01:56:07 PM 32.0075 -89.7072 69° East 531 611 37,000  Level Memphis Center
Tue 01:57:09 PM 32.0619 -89.5444 68° East 533 613 37,000  Level Memphis Center
Tue 01:58:10 PM 32.1161 -89.3825 68° East 534 615 37,000  Level Memphis Center
Tue 01:59:12 PM 32.1808 -89.1881 68° East 535 616 37,000  Level Memphis Center
Tue 02:00:14 PM 32.2342 -89.0250 69° East 535 616 37,000  Level Memphis Center
Tue 02:02:37 PM 32.3547 -88.6503 69° East 545 627 37,000  Level Houston Center
Tue 02:03:20 PM 32.3994 -88.5172 68° East 542 624 37,000  Level Memphis Center
Tue 02:04:22 PM 32.4531 -88.3489 69° East 543 625 37,000  Level Memphis Center
Tue 02:05:24 PM 32.5128 -88.1622 69° East 545 627 37,000  Level Memphis Center
Tue 02:06:25 PM 32.5656 -87.9911 70° East 552 635 37,000  Level Memphis Center
Tue 02:07:27 PM 32.6261 -87.8003 69° East 554 638 37,000  Level Memphis Center
Tue 02:08:29 PM 32.6819 -87.6261 69° East 559 643 37,000  Level Memphis Center
Tue 02:09:31 PM 32.7294 -87.4708 70° East 560 644 37,000  Level Memphis Center
Tue 02:10:33 PM 32.7956 -87.2575 70° East 570 656 37,000  Level Memphis Center
Tue 02:11:41 PM 32.8511 -87.0753 70° East 578 665 37,000  Level Atlanta Center
Tue 02:12:41 PM 32.9053 -86.8964 70° East 578 665 37,000  Level Atlanta Center
Tue 02:13:41 PM 32.9594 -86.7175 70° East 578 665 37,000  Level Atlanta Center
Tue 02:15:41 PM 33.0669 -86.3639 70° East 572 658 37,000  Level Atlanta Center
Tue 02:16:41 PM 33.1200 -86.1917 70° East 560 644 37,000  Level Atlanta Center
Tue 02:17:41 PM 33.1750 -86.0219 69° East 554 638 37,000  Level Atlanta Center
Tue 02:18:41 PM 33.2322 -85.8319 70° East 554 638 37,000  Level Atlanta Center
Tue 02:19:41 PM 33.2847 -85.6567 70° East 561 646 37,000  Level Atlanta Center
Tue 02:20:41 PM 33.3331 -85.4758 72° East 561 646 37,000  Level Atlanta Center
Tue 02:21:41 PM 33.3850 -85.3025 70° East 561 646 37,000  Level Atlanta Center
Tue 02:22:41 PM 33.4347 -85.1242 71° East 561 646 37,000  Level Atlanta Center
Tue 02:23:41 PM 33.4861 -84.9456 71° East 561 646 37,000  Level Atlanta Center
Tue 02:25:41 PM 33.5842 -84.5900 73° East 561 646 37,000  Level Atlanta Center
Tue 02:27:41 PM 33.6417 -84.2458 86° East 548 631 37,000  Level Atlanta Center
Tue 02:28:41 PM 33.7128 -84.0539 66° East 563 648 37,000  Level Atlanta Center
Tue 02:30:41 PM 33.9086 -83.7458 52° Northeast 574 661 37,000  Level Atlanta Center
Tue 02:31:41 PM 34.0042 -83.5928 53° Northeast 574 661 37,000  Level Atlanta Center
Tue 02:33:41 PM 34.2011 -83.2853 53° Northeast 580 667 37,000  Level Atlanta Center
Tue 02:35:41 PM 34.3806 -82.9917 53° Northeast 575 662 37,000  Level Atlanta Center
Tue 02:36:41 PM 34.4750 -82.8344 54° Northeast 580 667 37,000  Level Atlanta Center
Tue 02:37:41 PM 34.5714 -82.6817 53° Northeast 573 659 37,000  Level Atlanta Center
Tue 02:38:41 PM 34.6781 -82.5183 52° Northeast 567 652 37,000  Level Atlanta Center
Tue 02:39:41 PM 34.7719 -82.3622 54° Northeast 567 652 37,000  Level Atlanta Center
Tue 02:40:00 PM 34.7117 -82.4472 53° Northeast  Level FlightAware Approximate
Tue 02:40:41 PM 34.8658 -82.2086 53° Northeast 567 652 37,000  Level Atlanta Center
Tue 02:41:41 PM 34.9514 -82.0697 53° Northeast 567 652 37,000  Level Atlanta Center
Tue 02:43:41 PM 35.1294 -81.7481 58° Northeast 567 652 37,000  Level Atlanta Center
Tue 02:44:41 PM 35.2181 -81.5856 56° Northeast 572 658 37,000  Level Atlanta Center
Tue 02:45:41 PM 35.3022 -81.4225 58° Northeast 572 658 37,000  Level Atlanta Center
Tue 02:46:41 PM 35.3861 -81.2544 58° Northeast 572 658 37,000  Level Atlanta Center
Tue 02:47:41 PM 35.4719 -81.0858 58° Northeast 577 664 37,000  Level Atlanta Center
Tue 02:49:00 PM 35.5673 -80.9013 58° Northeast  Level FlightAware Approximate
Tue 02:49:41 PM 35.6572 -80.7392 58° Northeast 577 664 37,000  Level Atlanta Center
Tue 02:50:41 PM 35.7425 -80.5744 57° Northeast 582 670 37,000  Level Atlanta Center
Tue 02:51:41 PM 35.8272 -80.4044 58° Northeast 582 670 37,000 -1,175 Level Atlanta Center
Tue 02:53:55 PM 36.0214 -80.0322 57° Northeast 600 690 33,200 -1,237 Descending Washington Center
Tue 02:54:55 PM 36.1133 -79.8628 56° Northeast 600 690 33,000 -99 Descending Washington Center
Tue 02:55:56 PM 36.2342 -79.6889 49° Northeast 595 685 33,000  Level Washington Center
Tue 02:56:57 PM 36.3392 -79.5397 49° Northeast 589 678 33,000  Level Washington Center
Tue 02:57:57 PM 36.4356 -79.4028 49° Northeast 589 678 33,000 -1,240 Level Washington Center
Tue 02:58:58 PM 36.5556 -79.2353 48° Northeast 589 678 30,500 -2,797 Descending Washington Center
Tue 02:59:55 PM 36.6644 -79.0825 48° Northeast 589 678 27,500 -1,854 Descending Washington Center
Tue 03:01:56 PM 36.8622 -78.7981 48° Northeast 548 631 25,000 -824 Descending Washington Center
Tue 03:02:57 PM 36.9489 -78.6769 48° Northeast 523 602 25,000 -301 Level Washington Center
Tue 03:05:55 PM 37.2406 -78.2556 48° Northeast 523 602 23,800 -600 Descending Washington Center
Tue 03:07:57 PM 37.4106 -78.0050 51° Northeast 507 583 22,000 -590 Descending Washington Center
Tue 03:08:58 PM 37.4989 -77.8719 50° Northeast 494 568 22,000 -804 Level Washington Center
Tue 03:10:56 PM 37.7311 -77.7108 25° Northeast 466 536 19,600 -1,743 Descending Washington Center
Tue 03:11:57 PM 37.8408 -77.6456 25° Northeast 452 520 16,800 -2,926 Descending Washington Center
Tue 03:12:57 PM 37.9503 -77.5825 24° Northeast 438 504 13,700 -2,727 Descending Washington Center
Tue 03:13:58 PM 38.0575 -77.5222 24° Northeast 414 476 11,300 -1,664 Descending Washington Center
Tue 03:14:56 PM 38.1314 -77.4686 30° Northeast 348 400 10,400 -763 Descending Washington Center
Tue 03:15:56 PM 38.2197 -77.4258 21° North 311 358 9,800 -793 Descending Washington Center
Tue 03:16:57 PM 38.2883 -77.4461 347° North 272 313 8,800 -942 Descending Washington Center
Tue 03:17:57 PM 38.3608 -77.4717 345° North 272 313 7,900 -900 Descending Washington Center
Tue 03:18:57 PM 38.4317 -77.4708 North 272 313 7,000 -458 Descending Washington Center
Tue 03:19:55 PM 38.5047 -77.4675 North 266 306 7,000 -300 Level Washington Center
Tue 03:20:57 PM 38.5736 -77.4664 North 255 293 6,400 -1,000 Descending Washington Center
Tue 03:21:55 PM 38.6550 -77.4606 North 255 293 5,000 -763 Descending Washington Center
Tue 03:22:55 PM 38.7153 -77.4622 359° North 242 278 4,900 -618 Descending Washington Center
Tue 03:24:11 PM 38.7833 -77.4667 357° North 177 204 3,600 -964 Descending Potomac TRACON
Tue 03:25:12 PM 38.8333 -77.4667 360° North 171 197 2,700 -895 Descending Potomac TRACON
Tue 03:27:12 PM 38.9167 -77.4667 360° North 129 148 900 -900 Descending Potomac TRACON

Login

Don't have an account? Register now (free) for customized features, flight alerts, and more!